sensor_id;sensor_type;location;lat;lon;timestamp;P1;durP1;ratioP1;P2;durP2;ratioP2
39694;SDS011;25367;-35.352;149.036;2023-02-15T00:02:14;5.72;;;1.00;;
39694;SDS011;25367;-35.352;149.036;2023-02-15T00:04:46;3.45;;;1.08;;
39694;SDS011;25367;-35.352;149.036;2023-02-15T00:07:15;3.20;;;0.60;;
39694;SDS011;25367;-35.352;149.036;2023-02-15T00:09:46;3.33;;;0.80;;
39694;SDS011;25367;-35.352;149.036;2023-02-15T00:12:15;1.58;;;0.47;;
39694;SDS011;25367;-35.352;149.036;2023-02-15T00:14:45;2.58;;;0.50;;
39694;SDS011;25367;-35.352;149.036;2023-02-15T00:17:15;3.38;;;0.77;;
39694;SDS011;25367;-35.352;149.036;2023-02-15T00:19:46;2.80;;;0.85;;
39694;SDS011;25367;-35.352;149.036;2023-02-15T00:22:15;2.53;;;0.88;;
39694;SDS011;25367;-35.352;149.036;2023-02-15T00:24:45;2.22;;;0.70;;
39694;SDS011;25367;-35.352;149.036;2023-02-15T00:27:14;1.83;;;0.70;;
39694;SDS011;25367;-35.352;149.036;2023-02-15T00:29:46;2.92;;;0.70;;
39694;SDS011;25367;-35.352;149.036;2023-02-15T00:32:15;3.20;;;0.77;;
39694;SDS011;25367;-35.352;149.036;2023-02-15T00:34:47;2.17;;;0.50;;
39694;SDS011;25367;-35.352;149.036;2023-02-15T00:37:17;1.20;;;0.60;;
39694;SDS011;25367;-35.352;149.036;2023-02-15T00:39:48;1.45;;;0.55;;
39694;SDS011;25367;-35.352;149.036;2023-02-15T00:42:18;2.00;;;0.47;;
39694;SDS011;25367;-35.352;149.036;2023-02-15T00:44:47;0.82;;;0.30;;
39694;SDS011;25367;-35.352;149.036;2023-02-15T00:47:20;0.85;;;0.25;;
39694;SDS011;25367;-35.352;149.036;2023-02-15T00:52:18;3.30;;;0.60;;
39694;SDS011;25367;-35.352;149.036;2023-02-15T00:54:48;2.00;;;0.45;;
39694;SDS011;25367;-35.352;149.036;2023-02-15T00:57:17;1.80;;;0.50;;
39694;SDS011;25367;-35.352;149.036;2023-02-15T00:59:47;3.17;;;0.75;;
39694;SDS011;25367;-35.352;149.036;2023-02-15T01:02:18;2.67;;;0.57;;
39694;SDS011;25367;-35.352;149.036;2023-02-15T01:04:48;1.33;;;0.80;;
39694;SDS011;25367;-35.352;149.036;2023-02-15T01:07:17;2.88;;;0.50;;
39694;SDS011;25367;-35.352;149.036;2023-02-15T01:09:47;1.88;;;0.60;;
39694;SDS011;25367;-35.352;149.036;2023-02-15T01:12:16;2.78;;;0.60;;
39694;SDS011;25367;-35.352;149.036;2023-02-15T01:14:48;1.60;;;0.60;;
39694;SDS011;25367;-35.352;149.036;2023-02-15T01:17:19;2.00;;;0.50;;
39694;SDS011;25367;-35.352;149.036;2023-02-15T01:19:48;5.90;;;0.90;;
39694;SDS011;25367;-35.352;149.036;2023-02-15T01:22:19;8.52;;;1.00;;
39694;SDS011;25367;-35.352;149.036;2023-02-15T01:24:49;2.70;;;0.65;;
39694;SDS011;25367;-35.352;149.036;2023-02-15T01:27:18;2.38;;;0.52;;
39694;SDS011;25367;-35.352;149.036;2023-02-15T01:29:48;1.55;;;0.50;;
39694;SDS011;25367;-35.352;149.036;2023-02-15T01:32:19;5.72;;;0.50;;
39694;SDS011;25367;-35.352;149.036;2023-02-15T01:34:48;3.35;;;0.60;;
39694;SDS011;25367;-35.352;149.036;2023-02-15T01:37:18;3.53;;;0.50;;
39694;SDS011;25367;-35.352;149.036;2023-02-15T01:39:47;2.85;;;0.77;;
39694;SDS011;25367;-35.352;149.036;2023-02-15T01:42:21;1.55;;;0.50;;
39694;SDS011;25367;-35.352;149.036;2023-02-15T01:44:51;1.30;;;0.40;;
39694;SDS011;25367;-35.352;149.036;2023-02-15T01:47:32;4.13;;;0.68;;
39694;SDS011;25367;-35.352;149.036;2023-02-15T01:50:06;3.05;;;0.40;;
39694;SDS011;25367;-35.352;149.036;2023-02-15T01:52:40;2.50;;;0.57;;
39694;SDS011;25367;-35.352;149.036;2023-02-15T01:55:12;3.90;;;0.50;;
39694;SDS011;25367;-35.352;149.036;2023-02-15T01:57:42;4.22;;;0.82;;
39694;SDS011;25367;-35.352;149.036;2023-02-15T02:00:14;1.77;;;0.60;;
39694;SDS011;25367;-35.352;149.036;2023-02-15T02:02:50;3.75;;;0.60;;
39694;SDS011;25367;-35.352;149.036;2023-02-15T02:05:25;3.65;;;0.50;;
39694;SDS011;25367;-35.352;149.036;2023-02-15T02:07:56;3.17;;;0.52;;
39694;SDS011;25367;-35.352;149.036;2023-02-15T02:10:28;2.05;;;0.60;;
39694;SDS011;25367;-35.352;149.036;2023-02-15T02:12:58;3.97;;;0.50;;
39694;SDS011;25367;-35.352;149.036;2023-02-15T02:15:33;1.35;;;0.65;;
39694;SDS011;25367;-35.352;149.036;2023-02-15T02:18:15;0.95;;;0.40;;
39694;SDS011;25367;-35.352;149.036;2023-02-15T02:32:54;2.65;;;0.73;;
39694;SDS011;25367;-35.352;149.036;2023-02-15T02:35:47;4.80;;;0.75;;
39694;SDS011;25367;-35.352;149.036;2023-02-15T02:38:26;0.90;;;0.30;;
39694;SDS011;25367;-35.352;149.036;2023-02-15T02:41:05;1.50;;;0.45;;
39694;SDS011;25367;-35.352;149.036;2023-02-15T02:43:43;0.95;;;0.50;;
39694;SDS011;25367;-35.352;149.036;2023-02-15T02:46:20;2.75;;;0.73;;
39694;SDS011;25367;-35.352;149.036;2023-02-15T02:48:59;4.43;;;0.77;;
39694;SDS011;25367;-35.352;149.036;2023-02-15T02:51:31;1.50;;;0.60;;
39694;SDS011;25367;-35.352;149.036;2023-02-15T02:54:01;1.13;;;0.65;;
39694;SDS011;25367;-35.352;149.036;2023-02-15T02:56:35;3.08;;;0.50;;
39694;SDS011;25367;-35.352;149.036;2023-02-15T02:59:09;1.17;;;0.55;;
39694;SDS011;25367;-35.352;149.036;2023-02-15T03:01:43;6.05;;;0.70;;
39694;SDS011;25367;-35.352;149.036;2023-02-15T03:04:17;6.65;;;0.75;;
39694;SDS011;25367;-35.352;149.036;2023-02-15T03:06:50;1.23;;;0.70;;
39694;SDS011;25367;-35.352;149.036;2023-02-15T03:09:26;6.20;;;1.02;;
39694;SDS011;25367;-35.352;149.036;2023-02-15T03:11:58;4.07;;;0.70;;
39694;SDS011;25367;-35.352;149.036;2023-02-15T03:14:28;8.13;;;0.70;;
39694;SDS011;25367;-35.352;149.036;2023-02-15T03:16:58;14.25;;;1.05;;
39694;SDS011;25367;-35.352;149.036;2023-02-15T03:19:32;6.57;;;0.80;;
39694;SDS011;25367;-35.352;149.036;2023-02-15T03:22:06;5.88;;;0.70;;
39694;SDS011;25367;-35.352;149.036;2023-02-15T03:24:43;4.63;;;0.68;;
39694;SDS011;25367;-35.352;149.036;2023-02-15T03:27:16;4.88;;;0.70;;
39694;SDS011;25367;-35.352;149.036;2023-02-15T03:29:55;4.25;;;0.80;;
39694;SDS011;25367;-35.352;149.036;2023-02-15T03:32:27;3.63;;;0.80;;
39694;SDS011;25367;-35.352;149.036;2023-02-15T03:35:01;2.75;;;0.60;;
39694;SDS011;25367;-35.352;149.036;2023-02-15T03:37:32;5.20;;;0.60;;
39694;SDS011;25367;-35.352;149.036;2023-02-15T03:40:07;5.78;;;0.85;;
39694;SDS011;25367;-35.352;149.036;2023-02-15T03:42:42;4.07;;;0.80;;
39694;SDS011;25367;-35.352;149.036;2023-02-15T03:45:13;11.38;;;0.82;;
39694;SDS011;25367;-35.352;149.036;2023-02-15T03:47:50;4.55;;;0.88;;
39694;SDS011;25367;-35.352;149.036;2023-02-15T03:52:55;6.20;;;1.00;;
39694;SDS011;25367;-35.352;149.036;2023-02-15T03:55:27;2.47;;;0.70;;
39694;SDS011;25367;-35.352;149.036;2023-02-15T03:57:57;7.20;;;0.63;;
39694;SDS011;25367;-35.352;149.036;2023-02-15T04:00:27;2.28;;;0.40;;
39694;SDS011;25367;-35.352;149.036;2023-02-15T04:03:12;2.00;;;0.50;;
39694;SDS011;25367;-35.352;149.036;2023-02-15T04:05:55;2.70;;;0.60;;
39694;SDS011;25367;-35.352;149.036;2023-02-15T04:08:24;7.95;;;0.82;;
39694;SDS011;25367;-35.352;149.036;2023-02-15T04:10:53;1.55;;;0.50;;
39694;SDS011;25367;-35.352;149.036;2023-02-15T04:13:30;1.38;;;0.60;;
39694;SDS011;25367;-35.352;149.036;2023-02-15T04:15:59;3.13;;;0.50;;
39694;SDS011;25367;-35.352;149.036;2023-02-15T04:18:29;1.13;;;0.40;;
39694;SDS011;25367;-35.352;149.036;2023-02-15T04:21:02;3.78;;;0.65;;
39694;SDS011;25367;-35.352;149.036;2023-02-15T04:23:31;0.52;;;0.30;;
39694;SDS011;25367;-35.352;149.036;2023-02-15T04:26:06;1.45;;;0.40;;
39694;SDS011;25367;-35.352;149.036;2023-02-15T04:28:35;3.58;;;0.50;;
39694;SDS011;25367;-35.352;149.036;2023-02-15T04:31:04;3.55;;;0.60;;
39694;SDS011;25367;-35.352;149.036;2023-02-15T04:33:37;1.77;;;0.70;;
39694;SDS011;25367;-35.352;149.036;2023-02-15T04:36:09;0.82;;;0.50;;
39694;SDS011;25367;-35.352;149.036;2023-02-15T04:38:39;0.47;;;0.32;;
39694;SDS011;25367;-35.352;149.036;2023-02-15T04:41:08;2.00;;;0.80;;
39694;SDS011;25367;-35.352;149.036;2023-02-15T04:43:38;0.52;;;0.32;;
39694;SDS011;25367;-35.352;149.036;2023-02-15T04:46:07;1.98;;;0.57;;
39694;SDS011;25367;-35.352;149.036;2023-02-15T04:48:37;2.22;;;0.80;;
39694;SDS011;25367;-35.352;149.036;2023-02-15T04:51:10;0.93;;;0.47;;
39694;SDS011;25367;-35.352;149.036;2023-02-15T04:53:39;2.30;;;0.60;;
39694;SDS011;25367;-35.352;149.036;2023-02-15T04:56:08;3.22;;;0.63;;
39694;SDS011;25367;-35.352;149.036;2023-02-15T04:58:38;3.47;;;0.60;;
39694;SDS011;25367;-35.352;149.036;2023-02-15T05:01:07;3.70;;;0.75;;
39694;SDS011;25367;-35.352;149.036;2023-02-15T05:03:37;2.28;;;0.70;;
39694;SDS011;25367;-35.352;149.036;2023-02-15T05:06:09;1.23;;;0.40;;
39694;SDS011;25367;-35.352;149.036;2023-02-15T05:08:38;2.05;;;0.52;;
39694;SDS011;25367;-35.352;149.036;2023-02-15T05:11:07;1.58;;;0.60;;
39694;SDS011;25367;-35.352;149.036;2023-02-15T05:13:37;2.30;;;0.63;;
39694;SDS011;25367;-35.352;149.036;2023-02-15T05:16:06;1.92;;;0.52;;
39694;SDS011;25367;-35.352;149.036;2023-02-15T05:18:35;0.93;;;0.35;;
39694;SDS011;25367;-35.352;149.036;2023-02-15T05:21:05;4.53;;;0.60;;
39694;SDS011;25367;-35.352;149.036;2023-02-15T05:23:37;3.75;;;0.50;;
39694;SDS011;25367;-35.352;149.036;2023-02-15T05:26:07;8.88;;;0.70;;
39694;SDS011;25367;-35.352;149.036;2023-02-15T05:28:38;4.57;;;0.82;;
39694;SDS011;25367;-35.352;149.036;2023-02-15T05:31:09;3.72;;;0.50;;
39694;SDS011;25367;-35.352;149.036;2023-02-15T05:33:40;1.08;;;0.43;;
39694;SDS011;25367;-35.352;149.036;2023-02-15T05:36:14;1.50;;;0.60;;
39694;SDS011;25367;-35.352;149.036;2023-02-15T05:38:43;8.82;;;0.70;;
39694;SDS011;25367;-35.352;149.036;2023-02-15T05:41:13;1.70;;;0.40;;
39694;SDS011;25367;-35.352;149.036;2023-02-15T05:43:42;4.45;;;0.50;;
39694;SDS011;25367;-35.352;149.036;2023-02-15T05:46:12;5.05;;;0.70;;
39694;SDS011;25367;-35.352;149.036;2023-02-15T05:48:41;2.22;;;0.70;;
39694;SDS011;25367;-35.352;149.036;2023-02-15T05:51:13;4.00;;;0.55;;
39694;SDS011;25367;-35.352;149.036;2023-02-15T05:53:42;6.18;;;0.70;;
39694;SDS011;25367;-35.352;149.036;2023-02-15T05:56:12;1.83;;;0.50;;
39694;SDS011;25367;-35.352;149.036;2023-02-15T05:58:41;1.38;;;0.50;;
39694;SDS011;25367;-35.352;149.036;2023-02-15T06:01:11;1.65;;;0.47;;
39694;SDS011;25367;-35.352;149.036;2023-02-15T06:03:41;3.92;;;0.50;;
39694;SDS011;25367;-35.352;149.036;2023-02-15T06:06:13;6.25;;;0.50;;
39694;SDS011;25367;-35.352;149.036;2023-02-15T06:08:43;1.45;;;0.43;;
39694;SDS011;25367;-35.352;149.036;2023-02-15T06:11:12;0.40;;;0.40;;
39694;SDS011;25367;-35.352;149.036;2023-02-15T06:13:41;4.28;;;0.50;;
39694;SDS011;25367;-35.352;149.036;2023-02-15T06:16:11;0.70;;;0.40;;
39694;SDS011;25367;-35.352;149.036;2023-02-15T06:18:40;3.42;;;0.60;;
39694;SDS011;25367;-35.352;149.036;2023-02-15T06:21:10;6.50;;;1.23;;
39694;SDS011;25367;-35.352;149.036;2023-02-15T06:23:41;1.92;;;0.70;;
39694;SDS011;25367;-35.352;149.036;2023-02-15T06:26:11;4.50;;;0.55;;
39694;SDS011;25367;-35.352;149.036;2023-02-15T06:28:40;2.53;;;0.70;;
39694;SDS011;25367;-35.352;149.036;2023-02-15T06:31:09;2.15;;;0.50;;
39694;SDS011;25367;-35.352;149.036;2023-02-15T06:33:39;1.52;;;0.68;;
39694;SDS011;25367;-35.352;149.036;2023-02-15T06:36:08;0.80;;;0.43;;
39694;SDS011;25367;-35.352;149.036;2023-02-15T06:38:40;1.52;;;0.68;;
39694;SDS011;25367;-35.352;149.036;2023-02-15T06:41:09;1.70;;;0.60;;
39694;SDS011;25367;-35.352;149.036;2023-02-15T06:43:38;1.35;;;0.50;;
39694;SDS011;25367;-35.352;149.036;2023-02-15T06:46:08;1.52;;;0.65;;
39694;SDS011;25367;-35.352;149.036;2023-02-15T06:48:37;2.97;;;0.60;;
39694;SDS011;25367;-35.352;149.036;2023-02-15T06:51:07;3.88;;;0.65;;
39694;SDS011;25367;-35.352;149.036;2023-02-15T06:53:36;3.13;;;0.77;;
39694;SDS011;25367;-35.352;149.036;2023-02-15T06:56:07;3.97;;;0.55;;
39694;SDS011;25367;-35.352;149.036;2023-02-15T06:58:38;5.82;;;0.80;;
39694;SDS011;25367;-35.352;149.036;2023-02-15T07:01:08;3.08;;;0.73;;
39694;SDS011;25367;-35.352;149.036;2023-02-15T07:03:37;4.47;;;0.88;;
39694;SDS011;25367;-35.352;149.036;2023-02-15T07:06:07;3.58;;;0.85;;
39694;SDS011;25367;-35.352;149.036;2023-02-15T07:08:36;5.22;;;1.20;;
39694;SDS011;25367;-35.352;149.036;2023-02-15T07:11:08;7.72;;;1.10;;
39694;SDS011;25367;-35.352;149.036;2023-02-15T07:13:37;5.85;;;1.15;;
39694;SDS011;25367;-35.352;149.036;2023-02-15T07:16:07;4.63;;;1.20;;
39694;SDS011;25367;-35.352;149.036;2023-02-15T07:18:37;3.08;;;0.80;;
39694;SDS011;25367;-35.352;149.036;2023-02-15T07:21:06;10.20;;;1.42;;
39694;SDS011;25367;-35.352;149.036;2023-02-15T07:23:36;3.17;;;1.27;;
39694;SDS011;25367;-35.352;149.036;2023-02-15T07:26:08;2.15;;;0.93;;
39694;SDS011;25367;-35.352;149.036;2023-02-15T07:28:37;5.25;;;1.20;;
39694;SDS011;25367;-35.352;149.036;2023-02-15T07:31:06;4.50;;;1.10;;
39694;SDS011;25367;-35.352;149.036;2023-02-15T07:33:36;3.25;;;1.00;;
39694;SDS011;25367;-35.352;149.036;2023-02-15T07:36:08;4.85;;;0.93;;
39694;SDS011;25367;-35.352;149.036;2023-02-15T07:38:40;3.47;;;1.05;;
39694;SDS011;25367;-35.352;149.036;2023-02-15T07:41:10;4.15;;;1.15;;
39694;SDS011;25367;-35.352;149.036;2023-02-15T07:43:41;9.18;;;1.33;;
39694;SDS011;25367;-35.352;149.036;2023-02-15T07:46:12;3.95;;;1.02;;
39694;SDS011;25367;-35.352;149.036;2023-02-15T07:48:42;3.45;;;0.80;;
39694;SDS011;25367;-35.352;149.036;2023-02-15T07:51:13;6.45;;;1.15;;
39694;SDS011;25367;-35.352;149.036;2023-02-15T07:53:46;2.45;;;0.90;;
39694;SDS011;25367;-35.352;149.036;2023-02-15T07:58:44;6.57;;;1.27;;
39694;SDS011;25367;-35.352;149.036;2023-02-15T08:01:13;6.13;;;1.45;;
39694;SDS011;25367;-35.352;149.036;2023-02-15T08:03:43;5.70;;;1.40;;
39694;SDS011;25367;-35.352;149.036;2023-02-15T08:06:12;9.77;;;1.67;;
39694;SDS011;25367;-35.352;149.036;2023-02-15T08:08:42;4.30;;;0.88;;
39694;SDS011;25367;-35.352;149.036;2023-02-15T08:11:15;6.97;;;1.08;;
39694;SDS011;25367;-35.352;149.036;2023-02-15T08:13:47;9.73;;;1.35;;
39694;SDS011;25367;-35.352;149.036;2023-02-15T08:16:18;3.40;;;0.70;;
39694;SDS011;25367;-35.352;149.036;2023-02-15T08:18:49;7.40;;;1.25;;
39694;SDS011;25367;-35.352;149.036;2023-02-15T08:21:19;3.50;;;1.10;;
39694;SDS011;25367;-35.352;149.036;2023-02-15T08:23:52;4.35;;;0.88;;
39694;SDS011;25367;-35.352;149.036;2023-02-15T08:26:22;2.38;;;0.93;;
39694;SDS011;25367;-35.352;149.036;2023-02-15T08:28:52;5.93;;;1.33;;
39694;SDS011;25367;-35.352;149.036;2023-02-15T08:31:21;7.13;;;1.08;;
39694;SDS011;25367;-35.352;149.036;2023-02-15T08:33:51;5.03;;;0.95;;
39694;SDS011;25367;-35.352;149.036;2023-02-15T08:36:22;3.67;;;0.90;;
39694;SDS011;25367;-35.352;149.036;2023-02-15T08:38:55;4.75;;;1.30;;
39694;SDS011;25367;-35.352;149.036;2023-02-15T08:41:26;6.97;;;0.90;;
39694;SDS011;25367;-35.352;149.036;2023-02-15T08:43:58;3.00;;;0.70;;
39694;SDS011;25367;-35.352;149.036;2023-02-15T08:46:29;12.27;;;1.10;;
39694;SDS011;25367;-35.352;149.036;2023-02-15T08:49:02;7.03;;;1.10;;
39694;SDS011;25367;-35.352;149.036;2023-02-15T08:51:33;2.25;;;0.77;;
39694;SDS011;25367;-35.352;149.036;2023-02-15T08:54:06;2.38;;;0.80;;
39694;SDS011;25367;-35.352;149.036;2023-02-15T08:56:37;4.05;;;1.20;;
39694;SDS011;25367;-35.352;149.036;2023-02-15T08:59:11;2.20;;;0.73;;
39694;SDS011;25367;-35.352;149.036;2023-02-15T09:01:42;3.28;;;0.90;;
39694;SDS011;25367;-35.352;149.036;2023-02-15T09:04:12;2.55;;;0.95;;
39694;SDS011;25367;-35.352;149.036;2023-02-15T09:06:42;4.95;;;0.95;;
39694;SDS011;25367;-35.352;149.036;2023-02-15T09:09:14;3.97;;;0.80;;
39694;SDS011;25367;-35.352;149.036;2023-02-15T09:11:44;2.30;;;1.17;;
39694;SDS011;25367;-35.352;149.036;2023-02-15T09:14:14;7.40;;;0.77;;
39694;SDS011;25367;-35.352;149.036;2023-02-15T09:16:45;3.13;;;0.80;;
39694;SDS011;25367;-35.352;149.036;2023-02-15T09:19:15;5.97;;;1.40;;
39694;SDS011;25367;-35.352;149.036;2023-02-15T09:21:46;12.43;;;1.30;;
39694;SDS011;25367;-35.352;149.036;2023-02-15T09:24:17;12.07;;;1.05;;
39694;SDS011;25367;-35.352;149.036;2023-02-15T09:26:47;4.15;;;1.10;;
39694;SDS011;25367;-35.352;149.036;2023-02-15T09:29:17;3.67;;;0.77;;
39694;SDS011;25367;-35.352;149.036;2023-02-15T09:31:47;5.03;;;1.17;;
39694;SDS011;25367;-35.352;149.036;2023-02-15T09:34:17;4.40;;;0.93;;
39694;SDS011;25367;-35.352;149.036;2023-02-15T09:36:48;3.25;;;1.10;;
39694;SDS011;25367;-35.352;149.036;2023-02-15T09:39:20;3.05;;;0.93;;
39694;SDS011;25367;-35.352;149.036;2023-02-15T09:42:04;5.43;;;0.73;;
39694;SDS011;25367;-35.352;149.036;2023-02-15T09:47:53;5.28;;;1.45;;
39694;SDS011;25367;-35.352;149.036;2023-02-15T09:50:47;2.67;;;1.15;;
39694;SDS011;25367;-35.352;149.036;2023-02-15T09:53:37;5.53;;;1.17;;
39694;SDS011;25367;-35.352;149.036;2023-02-15T09:56:22;3.03;;;0.82;;
39694;SDS011;25367;-35.352;149.036;2023-02-15T09:58:59;6.90;;;0.90;;
39694;SDS011;25367;-35.352;149.036;2023-02-15T10:01:39;4.38;;;1.13;;
39694;SDS011;25367;-35.352;149.036;2023-02-15T10:04:20;8.50;;;1.25;;
39694;SDS011;25367;-35.352;149.036;2023-02-15T10:07:04;2.97;;;0.90;;
39694;SDS011;25367;-35.352;149.036;2023-02-15T10:09:49;4.28;;;1.33;;
39694;SDS011;25367;-35.352;149.036;2023-02-15T10:12:35;4.75;;;1.48;;
39694;SDS011;25367;-35.352;149.036;2023-02-15T10:15:24;3.88;;;1.20;;
39694;SDS011;25367;-35.352;149.036;2023-02-15T10:18:05;4.03;;;1.20;;
39694;SDS011;25367;-35.352;149.036;2023-02-15T10:20:49;3.67;;;1.02;;
39694;SDS011;25367;-35.352;149.036;2023-02-15T10:23:37;4.65;;;1.40;;
39694;SDS011;25367;-35.352;149.036;2023-02-15T10:26:17;2.35;;;1.02;;
39694;SDS011;25367;-35.352;149.036;2023-02-15T10:28:50;5.68;;;1.60;;
39694;SDS011;25367;-35.352;149.036;2023-02-15T10:31:26;3.53;;;1.10;;
39694;SDS011;25367;-35.352;149.036;2023-02-15T10:34:06;3.58;;;0.98;;
39694;SDS011;25367;-35.352;149.036;2023-02-15T10:39:50;4.80;;;1.00;;
39694;SDS011;25367;-35.352;149.036;2023-02-15T10:42:27;3.70;;;1.02;;
39694;SDS011;25367;-35.352;149.036;2023-02-15T10:45:10;5.13;;;1.30;;
39694;SDS011;25367;-35.352;149.036;2023-02-15T10:51:05;7.40;;;1.48;;
39694;SDS011;25367;-35.352;149.036;2023-02-15T10:53:45;6.50;;;1.10;;
39694;SDS011;25367;-35.352;149.036;2023-02-15T10:56:28;7.85;;;1.45;;
39694;SDS011;25367;-35.352;149.036;2023-02-15T10:59:07;3.65;;;1.30;;
39694;SDS011;25367;-35.352;149.036;2023-02-15T11:01:51;5.07;;;1.20;;
39694;SDS011;25367;-35.352;149.036;2023-02-15T11:07:21;4.43;;;1.10;;
39694;SDS011;25367;-35.352;149.036;2023-02-15T11:09:57;2.92;;;0.75;;
39694;SDS011;25367;-35.352;149.036;2023-02-15T11:12:35;4.80;;;1.30;;
39694;SDS011;25367;-35.352;149.036;2023-02-15T11:15:09;4.05;;;1.35;;
39694;SDS011;25367;-35.352;149.036;2023-02-15T11:17:46;4.47;;;1.15;;
39694;SDS011;25367;-35.352;149.036;2023-02-15T11:20:21;7.97;;;1.40;;
39694;SDS011;25367;-35.352;149.036;2023-02-15T11:22:56;6.30;;;1.13;;
39694;SDS011;25367;-35.352;149.036;2023-02-15T11:25:28;5.00;;;1.13;;
39694;SDS011;25367;-35.352;149.036;2023-02-15T11:27:59;8.48;;;1.40;;
39694;SDS011;25367;-35.352;149.036;2023-02-15T11:30:36;3.97;;;1.35;;
39694;SDS011;25367;-35.352;149.036;2023-02-15T11:33:15;4.00;;;1.02;;
39694;SDS011;25367;-35.352;149.036;2023-02-15T11:35:48;3.92;;;0.90;;
39694;SDS011;25367;-35.352;149.036;2023-02-15T11:38:21;3.88;;;1.17;;
39694;SDS011;25367;-35.352;149.036;2023-02-15T11:40:53;4.40;;;1.13;;
39694;SDS011;25367;-35.352;149.036;2023-02-15T11:43:27;2.67;;;0.80;;
39694;SDS011;25367;-35.352;149.036;2023-02-15T11:46:00;6.20;;;0.90;;
39694;SDS011;25367;-35.352;149.036;2023-02-15T11:48:36;6.47;;;1.27;;
39694;SDS011;25367;-35.352;149.036;2023-02-15T11:51:05;3.97;;;1.17;;
39694;SDS011;25367;-35.352;149.036;2023-02-15T11:56:11;4.10;;;1.20;;
39694;SDS011;25367;-35.352;149.036;2023-02-15T11:58:43;4.20;;;1.27;;
39694;SDS011;25367;-35.352;149.036;2023-02-15T12:01:16;4.95;;;1.65;;
39694;SDS011;25367;-35.352;149.036;2023-02-15T12:03:53;4.38;;;1.35;;
39694;SDS011;25367;-35.352;149.036;2023-02-15T12:06:27;6.10;;;1.10;;
39694;SDS011;25367;-35.352;149.036;2023-02-15T12:09:01;4.03;;;1.55;;
39694;SDS011;25367;-35.352;149.036;2023-02-15T12:11:35;6.07;;;1.42;;
39694;SDS011;25367;-35.352;149.036;2023-02-15T12:14:05;5.10;;;1.25;;
39694;SDS011;25367;-35.352;149.036;2023-02-15T12:16:40;4.15;;;1.25;;
39694;SDS011;25367;-35.352;149.036;2023-02-15T12:19:23;3.35;;;1.00;;
39694;SDS011;25367;-35.352;149.036;2023-02-15T12:21:57;6.47;;;1.48;;
39694;SDS011;25367;-35.352;149.036;2023-02-15T12:24:29;5.97;;;1.25;;
39694;SDS011;25367;-35.352;149.036;2023-02-15T12:27:01;4.33;;;1.30;;
39694;SDS011;25367;-35.352;149.036;2023-02-15T12:29:34;4.22;;;1.40;;
39694;SDS011;25367;-35.352;149.036;2023-02-15T12:32:09;3.33;;;1.17;;
39694;SDS011;25367;-35.352;149.036;2023-02-15T12:34:48;7.35;;;1.45;;
39694;SDS011;25367;-35.352;149.036;2023-02-15T12:37:19;3.15;;;1.00;;
39694;SDS011;25367;-35.352;149.036;2023-02-15T12:39:52;8.30;;;1.42;;
39694;SDS011;25367;-35.352;149.036;2023-02-15T12:42:23;4.32;;;1.40;;
39694;SDS011;25367;-35.352;149.036;2023-02-15T12:44:54;4.07;;;1.17;;
39694;SDS011;25367;-35.352;149.036;2023-02-15T12:47:26;3.67;;;1.10;;
39694;SDS011;25367;-35.352;149.036;2023-02-15T12:53:06;4.03;;;1.20;;
39694;SDS011;25367;-35.352;149.036;2023-02-15T12:55:42;3.55;;;1.10;;
39694;SDS011;25367;-35.352;149.036;2023-02-15T12:58:20;5.03;;;1.50;;
39694;SDS011;25367;-35.352;149.036;2023-02-15T13:03:51;6.30;;;1.38;;
39694;SDS011;25367;-35.352;149.036;2023-02-15T13:06:29;3.05;;;1.10;;
39694;SDS011;25367;-35.352;149.036;2023-02-15T13:09:05;5.47;;;1.25;;
39694;SDS011;25367;-35.352;149.036;2023-02-15T13:11:41;4.15;;;1.08;;
39694;SDS011;25367;-35.352;149.036;2023-02-15T13:14:17;3.80;;;1.30;;
39694;SDS011;25367;-35.352;149.036;2023-02-15T13:16:48;3.65;;;1.45;;
39694;SDS011;25367;-35.352;149.036;2023-02-15T13:19:33;5.28;;;1.23;;
39694;SDS011;25367;-35.352;149.036;2023-02-15T13:22:08;2.45;;;1.00;;
39694;SDS011;25367;-35.352;149.036;2023-02-15T13:24:42;4.20;;;1.30;;
39694;SDS011;25367;-35.352;149.036;2023-02-15T13:27:14;3.65;;;0.90;;
39694;SDS011;25367;-35.352;149.036;2023-02-15T13:29:46;1.63;;;0.80;;
39694;SDS011;25367;-35.352;149.036;2023-02-15T13:32:24;3.28;;;1.00;;
39694;SDS011;25367;-35.352;149.036;2023-02-15T13:34:56;5.53;;;0.85;;
39694;SDS011;25367;-35.352;149.036;2023-02-15T13:37:34;5.25;;;1.42;;
39694;SDS011;25367;-35.352;149.036;2023-02-15T13:40:14;3.28;;;0.70;;
39694;SDS011;25367;-35.352;149.036;2023-02-15T13:42:49;2.83;;;1.05;;
39694;SDS011;25367;-35.352;149.036;2023-02-15T13:45:30;2.97;;;1.25;;
39694;SDS011;25367;-35.352;149.036;2023-02-15T13:48:09;3.08;;;1.02;;
39694;SDS011;25367;-35.352;149.036;2023-02-15T13:50:56;1.85;;;0.75;;
39694;SDS011;25367;-35.352;149.036;2023-02-15T13:56:39;2.97;;;1.08;;
39694;SDS011;25367;-35.352;149.036;2023-02-15T13:59:22;3.93;;;1.27;;
39694;SDS011;25367;-35.352;149.036;2023-02-15T14:05:29;2.03;;;0.80;;
39694;SDS011;25367;-35.352;149.036;2023-02-15T14:08:17;3.10;;;0.50;;
39694;SDS011;25367;-35.352;149.036;2023-02-15T14:10:53;5.43;;;0.95;;
39694;SDS011;25367;-35.352;149.036;2023-02-15T14:13:38;3.22;;;1.33;;
39694;SDS011;25367;-35.352;149.036;2023-02-15T14:18:55;2.00;;;0.85;;
39694;SDS011;25367;-35.352;149.036;2023-02-15T14:21:32;2.85;;;1.08;;
39694;SDS011;25367;-35.352;149.036;2023-02-15T14:24:11;2.20;;;1.08;;
39694;SDS011;25367;-35.352;149.036;2023-02-15T14:26:54;1.75;;;0.88;;
39694;SDS011;25367;-35.352;149.036;2023-02-15T14:29:39;2.40;;;1.05;;
39694;SDS011;25367;-35.352;149.036;2023-02-15T14:32:16;2.58;;;0.95;;
39694;SDS011;25367;-35.352;149.036;2023-02-15T14:34:53;3.30;;;1.10;;
39694;SDS011;25367;-35.352;149.036;2023-02-15T14:37:27;2.13;;;0.98;;
39694;SDS011;25367;-35.352;149.036;2023-02-15T14:40:08;2.63;;;1.00;;
39694;SDS011;25367;-35.352;149.036;2023-02-15T14:42:45;2.55;;;0.98;;
39694;SDS011;25367;-35.352;149.036;2023-02-15T14:45:25;2.83;;;1.00;;
39694;SDS011;25367;-35.352;149.036;2023-02-15T14:48:01;3.03;;;1.25;;
39694;SDS011;25367;-35.352;149.036;2023-02-15T14:50:40;2.30;;;1.40;;
39694;SDS011;25367;-35.352;149.036;2023-02-15T14:53:33;1.70;;;0.80;;
39694;SDS011;25367;-35.352;149.036;2023-02-15T14:56:14;2.47;;;0.80;;
39694;SDS011;25367;-35.352;149.036;2023-02-15T14:58:57;1.65;;;0.70;;
39694;SDS011;25367;-35.352;149.036;2023-02-15T15:01:50;2.53;;;1.00;;
39694;SDS011;25367;-35.352;149.036;2023-02-15T15:04:28;1.27;;;0.80;;
39694;SDS011;25367;-35.352;149.036;2023-02-15T15:07:07;1.20;;;0.60;;
39694;SDS011;25367;-35.352;149.036;2023-02-15T15:09:44;1.23;;;0.50;;
39694;SDS011;25367;-35.352;149.036;2023-02-15T15:12:39;2.47;;;1.00;;
39694;SDS011;25367;-35.352;149.036;2023-02-15T15:15:11;1.13;;;0.70;;
39694;SDS011;25367;-35.352;149.036;2023-02-15T15:18:02;1.88;;;0.75;;
39694;SDS011;25367;-35.352;149.036;2023-02-15T15:26:28;2.03;;;0.70;;
39694;SDS011;25367;-35.352;149.036;2023-02-15T15:29:00;1.60;;;0.80;;
39694;SDS011;25367;-35.352;149.036;2023-02-15T15:31:46;2.33;;;1.00;;
39694;SDS011;25367;-35.352;149.036;2023-02-15T15:34:27;1.35;;;0.70;;
39694;SDS011;25367;-35.352;149.036;2023-02-15T15:46:37;2.17;;;0.80;;
39694;SDS011;25367;-35.352;149.036;2023-02-15T15:49:27;0.88;;;0.47;;
39694;SDS011;25367;-35.352;149.036;2023-02-15T15:52:00;1.92;;;0.80;;